CDT,Max TemperatureF,Mean TemperatureF,Min TemperatureF,Max Dew PointF,MeanDew PointF,Min DewpointF,Max Humidity, Mean Humidity, Min Humidity, Max Sea Level PressureIn, Mean Sea Level PressureIn, Min Sea Level PressureIn, Max VisibilityMiles, Mean VisibilityMiles, Min VisibilityMiles, Max Wind SpeedMPH, Mean Wind SpeedMPH, Max Gust SpeedMPH,PrecipitationIn, CloudCover, Events, WindDirDegrees
2013-7-1,82,68,53,58,54,49,93,64,35,30.14,30.11,30.08,10,10,10,21,7,25,0.00,0,,17
2013-7-2,84,70,55,60,56,49,100,67,33,30.12,30.06,30.01,10,10,7,16,7,20,0.00,1,Thunderstorm,342
2013-7-3,82,69,56,59,56,52,100,68,36,30.07,30.03,29.98,10,10,7,13,6,15,0.00,0,,131
2013-7-4,85,72,58,60,58,55,90,65,40,30.03,29.99,29.95,10,10,10,16,8,22,0.00,0,,164
2013-7-5,87,74,61,64,61,58,84,64,44,30.00,29.95,29.91,10,10,10,21,10,28,0.00,0,,169
2013-7-6,91,79,67,67,64,60,81,63,44,29.96,29.91,29.86,10,10,10,18,11,24,0.00,0,,162
2013-7-7,92,80,68,71,68,66,90,67,44,29.90,29.88,29.85,10,10,7,20,10,25,T,1,,180
2013-7-8,89,81,73,75,73,69,100,82,63,29.97,29.93,29.87,10,10,9,14,6,18,T,1,,210
2013-7-9,91,82,73,79,75,72,100,82,64,29.95,29.90,29.85,10,8,2,17,7,30,0.20,3,Rain-Thunderstorm,193
2013-7-10,82,73,63,73,61,55,94,68,42,30.05,29.99,29.91,10,10,10,22,8,28,0.00,0,,349
2013-7-11,82,70,57,62,58,55,93,67,40,30.12,30.08,30.03,10,9,6,15,6,28,0.00,0,,119
2013-7-12,85,72,59,62,59,57,90,67,44,30.09,30.05,30.00,10,10,10,20,12,26,0.00,0,,150
2013-7-13,74,69,64,64,60,56,93,77,61,30.11,30.06,30.02,10,10,10,17,9,23,0.00,1,,137
2013-7-14,86,73,59,67,64,59,100,74,48,30.18,30.12,30.09,10,10,7,16,7,41,0.00,1,,133
2013-7-15,88,76,63,73,69,62,100,80,59,30.25,30.20,30.15,10,10,8,15,6,21,T,2,,119
2013-7-16,91,80,69,73,72,70,100,76,52,30.25,30.22,30.19,10,10,6,21,7,31,0.00,1,,165
2013-7-17,93,82,71,74,72,70,100,73,46,30.29,30.23,30.16,10,10,10,10,5,37,0.00,0,,205
2013-7-18,94,83,72,73,71,69,100,73,46,30.17,30.04,29.91,10,10,10,18,9,24,0.00,0,,210
2013-7-19,92,79,65,74,69,64,93,69,44,29.92,29.86,29.81,10,10,8,16,9,20,0.02,2,Rain-Thunderstorm,273
2013-7-20,87,73,58,66,62,58,100,71,42,29.96,29.91,29.87,10,10,7,9,3,12,0.00,0,,276
2013-7-21,82,73,64,70,66,61,100,77,54,29.91,29.86,29.81,10,10,9,18,7,22,0.01,1,Rain,141
2013-7-22,92,78,63,75,66,61,100,76,52,29.86,29.80,29.70,10,8,1,40,10,52,0.97,3,Rain-Thunderstorm,227
2013-7-23,77,68,59,66,60,58,97,77,57,29.99,29.92,29.78,10,10,10,16,8,23,0.00,0,,1
2013-7-24,78,66,54,61,57,54,100,73,45,30.07,30.04,29.99,10,10,10,8,3,14,0.00,1,,60
2013-7-25,84,71,57,66,63,56,100,76,51,30.05,30.02,29.94,10,9,1,25,8,33,1.14,4,Rain-Thunderstorm,177
2013-7-26,74,65,55,69,63,55,100,79,57,30.04,29.98,29.93,10,10,9,24,12,30,0.00,5,,272
2013-7-27,67,59,50,54,50,46,100,76,52,30.07,30.03,29.98,10,10,10,22,9,28,0.00,3,,319
2013-7-28,71,60,48,56,51,48,100,79,57,30.08,30.02,29.96,10,10,10,15,7,18,0.00,1,,313
2013-7-29,74,61,48,62,53,48,100,77,53,30.14,30.10,30.08,10,7,0,13,5,16,T,1,Fog,127
2013-7-30,69,66,63,65,64,60,100,91,81,30.10,30.07,30.05,10,8,2,12,5,14,0.08,8,Rain,94
2013-7-31,81,71,60,67,64,60,100,79,58,30.11,30.08,30.01,10,5,0,14,6,17,0.00,5,Fog,310